Time;durP1;ratioP1;P1;durP2;ratioP2;P2;SDS_P1;SDS_P2;PMS_P1;PMS_P2;Temp;Humidity;BMP_temperature;BMP_pressure;BME280_temperature;BME280_humidity;BME280_pressure;Samples;Min_cycle;Max_cycle;Signal;HPM_P1;HPM_P2
2023/07/15 00:01:25;;;;;;;;;;;19.00;99.90;;;;;;4885011;29;19931;-91
2023/07/15 00:03:51;;;;;;;;;;;18.90;99.90;;;;;;4880454;29;19931;-92
2023/07/15 00:06:26;;;;;;;;;;;19.00;99.90;;;;;;4906593;29;19927;-91
2023/07/15 00:08:53;;;;;;;;;;;19.00;99.90;;;;;;4895135;29;20391;-92
2023/07/15 00:11:31;;;;;;;;;;;19.00;99.90;;;;;;4869576;29;20337;-91
2023/07/15 00:14:00;;;;;;;;;;;19.00;99.90;;;;;;4878848;29;19935;-90
2023/07/15 00:16:32;;;;;;;;;;;19.00;99.90;;;;;;4879956;29;19938;-91
2023/07/15 00:18:58;;;;;;;;;;;19.00;99.90;;;;;;4895829;29;19963;-91
2023/07/15 00:21:25;;;;;;;;;;;19.00;99.90;;;;;;4879823;29;20042;-91
2023/07/15 00:24:06;;;;;;;;;;;19.00;99.90;;;;;;4868065;29;20325;-90
2023/07/15 00:26:35;;;;;;;;;;;19.00;99.90;;;;;;4867298;29;19939;-92
2023/07/15 00:29:03;;;;;;;;;;;18.90;99.90;;;;;;4896187;29;19928;-91
2023/07/15 00:31:35;;;;;;;;;;;19.00;99.90;;;;;;4895170;29;19942;-91
2023/07/15 00:34:07;;;;;;;;;;;19.00;99.90;;;;;;4879294;29;20380;-91
2023/07/15 00:36:42;;;;;;;;;;;19.00;99.90;;;;;;4894522;29;19932;-91
2023/07/15 00:39:09;;;;;;;;;;;19.00;99.90;;;;;;4879590;29;19934;-91
2023/07/15 00:41:35;;;;;;;;;;;18.90;99.90;;;;;;4894911;29;19934;-91
2023/07/15 00:44:04;;;;;;;;;;;18.90;99.90;;;;;;4889279;29;19927;-91
2023/07/15 00:46:48;;;;;;;;;;;18.90;99.90;;;;;;4880314;29;19936;-91
2023/07/15 00:49:21;;;;;;;;;;;19.00;99.90;;;;;;4866977;29;19928;-91
2023/07/15 00:51:51;;;;;;;;;;;19.00;99.90;;;;;;4895178;29;19938;-91
2023/07/15 00:54:20;;;;;;;;;;;18.90;99.90;;;;;;4880152;29;19931;-92
2023/07/15 00:56:46;;;;;;;;;;;18.90;99.90;;;;;;4878318;29;19927;-91
2023/07/15 00:59:13;;;;;;;;;;;18.80;99.90;;;;;;4894865;29;19927;-92
2023/07/15 01:01:38;;;;;;;;;;;18.90;99.90;;;;;;4878385;29;19987;-92
2023/07/15 01:04:07;;;;;;;;;;;18.90;99.90;;;;;;4880078;29;19932;-91
2023/07/15 01:06:36;;;;;;;;;;;18.90;99.90;;;;;;4879381;29;19928;-92
2023/07/15 01:09:07;;;;;;;;;;;19.10;99.90;;;;;;4897542;29;19928;-91
2023/07/15 01:11:36;;;;;;;;;;;19.00;99.90;;;;;;4894215;29;19967;-91
2023/07/15 01:14:09;;;;;;;;;;;19.20;99.90;;;;;;4866830;29;19932;-91
2023/07/15 01:16:41;;;;;;;;;;;18.90;99.90;;;;;;4894507;29;20030;-91
2023/07/15 01:19:17;;;;;;;;;;;;;;;;;;;;;
2023/07/15 01:21:49;;;;;;;;;;;19.00;99.90;;;;;;4882454;29;20380;-92
2023/07/15 01:24:14;;;;;;;;;;;18.30;99.90;;;;;;4885758;29;20357;-91
2023/07/15 01:26:40;;;;;;;;;;;19.10;99.90;;;;;;4890836;29;19942;-92
2023/07/15 01:29:20;;;;;;;;;;;19.10;99.90;;;;;;4879776;29;20277;-92
2023/07/15 01:31:46;;;;;;;;;;;19.10;99.90;;;;;;4893048;29;20344;-91
2023/07/15 01:34:12;;;;;;;;;;;19.20;99.90;;;;;;4879105;29;19927;-94
2023/07/15 01:36:38;;;;;;;;;;;19.20;99.90;;;;;;4878554;29;19934;-91
2023/07/15 01:39:16;;;;;;;;;;;19.20;99.90;;;;;;4894442;29;20313;-92
2023/07/15 01:41:45;;;;;;;;;;;19.40;99.90;;;;;;4909659;29;19927;-91
2023/07/15 01:44:14;;;;;;;;;;;19.40;99.90;;;;;;4878806;29;20355;-92
2023/07/15 01:46:43;;;;;;;;;;;19.30;99.90;;;;;;4866119;29;19942;-92
2023/07/15 01:49:11;;;;;;;;;;;19.30;99.90;;;;;;4879251;29;20315;-91
2023/07/15 01:51:47;;;;;;;;;;;19.40;99.90;;;;;;4878591;29;20424;-93
2023/07/15 01:54:15;;;;;;;;;;;19.50;99.90;;;;;;4897664;29;19936;-94
2023/07/15 01:56:50;;;;;;;;;;;19.40;99.90;;;;;;4878122;29;19942;-92
2023/07/15 01:59:33;;;;;;;;;;;19.40;99.90;;;;;;4879802;29;19975;-91
2023/07/15 02:02:14;;;;;;;;;;;19.40;99.90;;;;;;4878182;29;19930;-95
2023/07/15 02:04:40;;;;;;;;;;;19.50;99.90;;;;;;4868739;29;19940;-93
2023/07/15 02:07:06;;;;;;;;;;;19.30;99.90;;;;;;4893606;29;19934;-92
2023/07/15 02:09:34;;;;;;;;;;;19.40;99.90;;;;;;4908805;29;19938;-92
2023/07/15 02:12:05;;;;;;;;;;;19.40;99.90;;;;;;4889103;29;19939;-93
2023/07/15 02:14:31;;;;;;;;;;;19.20;99.90;;;;;;4869930;29;19959;-92
2023/07/15 02:16:57;;;;;;;;;;;19.30;99.90;;;;;;4878309;29;20006;-92
2023/07/15 02:19:23;;;;;;;;;;;19.30;99.90;;;;;;4878918;29;19991;-93
2023/07/15 02:21:55;;;;;;;;;;;19.50;99.90;;;;;;4894156;29;19934;-91
2023/07/15 02:24:21;;;;;;;;;;;19.30;99.90;;;;;;4867772;29;19951;-92
2023/07/15 02:26:49;;;;;;;;;;;19.30;99.90;;;;;;4891263;29;20389;-93
2023/07/15 02:29:15;;;;;;;;;;;19.20;99.90;;;;;;4878830;29;19927;-93
2023/07/15 02:31:42;;;;;;;;;;;19.20;99.90;;;;;;4877138;29;19927;-92
2023/07/15 02:34:08;;;;;;;;;;;19.20;99.90;;;;;;4894091;29;20243;-93
2023/07/15 02:36:34;;;;;;;;;;;19.20;99.90;;;;;;4878109;29;19938;-92
2023/07/15 02:39:00;;;;;;;;;;;19.20;99.90;;;;;;4894048;29;19978;-91
2023/07/15 02:41:25;;;;;;;;;;;19.10;99.90;;;;;;4877692;29;19959;-93
2023/07/15 02:43:51;;;;;;;;;;;19.10;99.90;;;;;;4893705;29;20402;-93
2023/07/15 02:46:22;;;;;;;;;;;19.10;99.90;;;;;;4878573;29;19931;-92
2023/07/15 02:48:51;;;;;;;;;;;18.90;99.90;;;;;;4893718;29;19995;-92
2023/07/15 02:51:16;;;;;;;;;;;19.00;99.90;;;;;;4878512;29;19942;-91
2023/07/15 02:53:46;;;;;;;;;;;19.00;99.90;;;;;;4893385;29;19927;-92
2023/07/15 02:56:12;;;;;;;;;;;19.00;99.90;;;;;;4876833;29;20348;-92
2023/07/15 02:58:37;;;;;;;;;;;19.00;99.90;;;;;;4877856;29;19932;-92
2023/07/15 03:01:03;;;;;;;;;;;19.00;99.90;;;;;;4879591;29;19927;-92
2023/07/15 03:03:38;;;;;;;;;;;19.00;99.90;;;;;;4885158;29;20001;-91
2023/07/15 03:06:10;;;;;;;;;;;19.00;99.90;;;;;;4885681;29;19927;-91
2023/07/15 03:08:44;;;;;;;;;;;18.90;99.90;;;;;;4896600;29;19955;-92
2023/07/15 03:11:11;;;;;;;;;;;18.90;99.90;;;;;;4897158;29;19982;-91
2023/07/15 03:13:40;;;;;;;;;;;18.90;99.90;;;;;;4896488;29;20336;-92
2023/07/15 03:16:13;;;;;;;;;;;18.80;99.90;;;;;;4896196;29;19928;-92
2023/07/15 03:18:42;;;;;;;;;;;18.80;99.90;;;;;;4877404;29;19979;-92
2023/07/15 03:21:10;;;;;;;;;;;18.70;99.90;;;;;;4896745;29;20406;-92
2023/07/15 03:23:43;;;;;;;;;;;18.70;99.90;;;;;;4898125;29;19927;-92
2023/07/15 03:26:09;;;;;;;;;;;18.80;99.90;;;;;;4880791;29;19931;-92
2023/07/15 03:28:34;;;;;;;;;;;18.70;99.90;;;;;;4881164;29;19922;-92
2023/07/15 03:31:00;;;;;;;;;;;18.80;99.90;;;;;;4879601;29;20403;-92
2023/07/15 03:33:26;;;;;;;;;;;19.50;99.90;;;;;;4880804;29;19935;-92
2023/07/15 03:35:54;;;;;;;;;;;18.90;99.90;;;;;;4881117;29;19956;-91
2023/07/15 03:38:29;;;;;;;;;;;18.90;99.90;;;;;;4894068;29;20011;-92
2023/07/15 03:40:55;;;;;;;;;;;18.90;99.90;;;;;;4896154;29;19938;-92
2023/07/15 03:43:20;;;;;;;;;;;18.90;99.90;;;;;;4880820;29;19931;-93
2023/07/15 03:45:46;;;;;;;;;;;19.00;99.90;;;;;;4880542;29;20441;-93
2023/07/15 03:48:11;;;;;;;;;;;19.00;99.90;;;;;;4881247;29;19934;-92
2023/07/15 03:50:37;;;;;;;;;;;19.00;99.90;;;;;;4879818;29;20042;-92
2023/07/15 03:53:14;;;;;;;;;;;19.10;99.90;;;;;;4896846;29;19927;-92
2023/07/15 03:55:40;;;;;;;;;;;19.10;99.90;;;;;;4895750;29;19987;-92
2023/07/15 03:58:13;;;;;;;;;;;18.80;99.90;;;;;;4896404;29;20018;-92
2023/07/15 04:00:42;;;;;;;;;;;19.20;99.90;;;;;;4894886;29;19976;-94
2023/07/15 04:03:17;;;;;;;;;;;19.30;99.90;;;;;;4906884;29;19915;-92
2023/07/15 04:05:42;;;;;;;;;;;19.30;99.90;;;;;;4880112;29;20371;-93
2023/07/15 04:08:08;;;;;;;;;;;19.30;99.90;;;;;;4897249;29;19928;-92
2023/07/15 04:10:37;;;;;;;;;;;19.40;99.90;;;;;;4894843;29;20048;-92
2023/07/15 04:13:06;;;;;;;;;;;19.40;99.90;;;;;;4888204;29;20054;-92
2023/07/15 04:15:34;;;;;;;;;;;19.80;99.90;;;;;;4879459;29;19928;-93
2023/07/15 04:18:03;;;;;;;;;;;19.40;99.90;;;;;;4872659;29;20046;-92
2023/07/15 04:20:31;;;;;;;;;;;19.40;99.90;;;;;;4894386;29;20441;-92
2023/07/15 04:23:22;;;;;;;;;;;19.40;99.90;;;;;;4878608;29;19928;-93
2023/07/15 04:25:58;;;;;;;;;;;;;;;;;;;;;
2023/07/15 04:33:22;;;;;;;;;;;;;;;;;;;;;
2023/07/15 04:36:09;;;;;;;;;;;19.40;99.90;;;;;;4709746;30;20403;-96
2023/07/15 04:42:22;;;;;;;;;;;19.60;99.90;;;;;;4727476;30;19940;-96
2023/07/15 04:45:19;;;;;;;;;;;20.00;99.90;;;;;;4735257;30;19977;-96
2023/07/15 04:47:46;;;;;;;;;;;19.60;99.90;;;;;;4724037;30;19926;-96
2023/07/15 04:50:17;;;;;;;;;;;19.70;99.90;;;;;;4742494;30;19934;-96
2023/07/15 05:00:02;;;;;;;;;;;19.90;99.90;;;;;;4705128;30;19931;-96
2023/07/15 05:05:57;;;;;;;;;;;20.10;99.90;;;;;;4708634;30;19935;-94
2023/07/15 05:15:46;;;;;;;;;;;20.40;99.90;;;;;;4822317;29;19928;-95
2023/07/15 05:19:22;;;;;;;;;;;20.50;99.90;;;;;;4854007;29;20413;-96
2023/07/15 05:24:57;;;;;;;;;;;20.60;99.90;;;;;;4842233;29;19932;-92
2023/07/15 05:27:29;;;;;;;;;;;20.60;99.90;;;;;;4866298;29;19934;-92
2023/07/15 05:29:57;;;;;;;;;;;20.70;99.90;;;;;;4880952;29;20022;-92
2023/07/15 05:32:25;;;;;;;;;;;20.70;99.90;;;;;;4881904;29;19931;-92
2023/07/15 05:34:51;;;;;;;;;;;20.80;99.90;;;;;;4880262;29;19967;-92
2023/07/15 05:37:17;;;;;;;;;;;20.80;99.90;;;;;;4903263;29;19927;-91
2023/07/15 05:39:47;;;;;;;;;;;20.90;99.90;;;;;;4881850;29;19927;-92
2023/07/15 05:42:13;;;;;;;;;;;20.90;99.90;;;;;;4881806;29;20388;-92
2023/07/15 05:44:39;;;;;;;;;;;21.00;99.90;;;;;;4896598;29;19938;-92
2023/07/15 05:47:05;;;;;;;;;;;21.10;99.90;;;;;;4870979;29;19931;-92
2023/07/15 05:49:36;;;;;;;;;;;21.10;99.90;;;;;;4882788;29;19938;-90
2023/07/15 05:52:02;;;;;;;;;;;21.20;99.90;;;;;;4894521;29;19970;-92
2023/07/15 05:54:28;;;;;;;;;;;21.30;99.90;;;;;;4883531;29;19927;-92
2023/07/15 05:56:56;;;;;;;;;;;21.30;99.90;;;;;;4880369;29;19938;-92
2023/07/15 05:59:21;;;;;;;;;;;21.40;99.90;;;;;;4911142;29;19987;-90
2023/07/15 06:01:47;;;;;;;;;;;21.50;99.90;;;;;;4879658;29;19927;-91
2023/07/15 06:04:13;;;;;;;;;;;21.50;99.90;;;;;;4884444;29;19927;-90
2023/07/15 06:06:39;;;;;;;;;;;21.60;99.90;;;;;;4883769;29;20727;-90
2023/07/15 06:09:04;;;;;;;;;;;21.70;99.90;;;;;;4879932;29;19942;-94
2023/07/15 06:11:30;;;;;;;;;;;21.80;99.90;;;;;;4903225;29;19940;-92
2023/07/15 06:13:57;;;;;;;;;;;21.90;99.90;;;;;;4897403;29;19931;-92
2023/07/15 06:16:25;;;;;;;;;;;21.90;99.90;;;;;;4897436;29;19933;-91
2023/07/15 06:18:54;;;;;;;;;;;22.00;99.90;;;;;;4881462;29;19963;-91
2023/07/15 06:21:26;;;;;;;;;;;22.10;99.90;;;;;;4896766;29;19931;-91
2023/07/15 06:23:52;;;;;;;;;;;21.90;99.90;;;;;;4881736;29;19938;-91
2023/07/15 06:26:19;;;;;;;;;;;22.20;99.90;;;;;;4880741;29;19927;-92
2023/07/15 06:28:45;;;;;;;;;;;22.30;99.90;;;;;;4896807;29;19927;-91
2023/07/15 06:31:16;;;;;;;;;;;22.40;99.90;;;;;;4880832;29;20070;-91
2023/07/15 06:33:44;;;;;;;;;;;22.60;99.90;;;;;;4892530;29;19927;-91
2023/07/15 06:36:10;;;;;;;;;;;22.70;99.90;;;;;;4885181;29;20017;-92
2023/07/15 06:38:36;;;;;;;;;;;22.70;99.90;;;;;;4900545;29;20002;-91
2023/07/15 06:41:06;;;;;;;;;;;22.70;99.90;;;;;;4897907;29;19931;-90
2023/07/15 06:43:33;;;;;;;;;;;22.70;99.90;;;;;;4885734;29;19931;-90
2023/07/15 06:45:58;;;;;;;;;;;22.70;99.90;;;;;;4899462;29;19927;-91
2023/07/15 06:48:24;;;;;;;;;;;22.60;99.90;;;;;;4884571;29;19931;-91
2023/07/15 06:50:52;;;;;;;;;;;22.60;99.90;;;;;;4900668;29;20355;-92
2023/07/15 06:53:21;;;;;;;;;;;22.60;99.90;;;;;;4884234;29;19946;-92
2023/07/15 06:55:51;;;;;;;;;;;22.60;99.90;;;;;;4895942;29;19931;-91
2023/07/15 06:58:25;;;;;;;;;;;22.60;99.90;;;;;;4885505;29;19934;-92
2023/07/15 07:00:51;;;;;;;;;;;22.80;99.90;;;;;;4883690;29;19934;-89
2023/07/15 07:03:17;;;;;;;;;;;23.00;99.90;;;;;;4884054;29;19935;-93
2023/07/15 07:05:45;;;;;;;;;;;23.20;99.90;;;;;;4884006;29;20026;-91
2023/07/15 07:08:11;;;;;;;;;;;23.30;99.90;;;;;;4885125;29;19927;-90
2023/07/15 07:10:37;;;;;;;;;;;23.50;99.90;;;;;;4884067;29;19938;-93
2023/07/15 07:13:04;;;;;;;;;;;23.60;99.90;;;;;;4910168;29;20021;-91
2023/07/15 07:15:30;;;;;;;;;;;23.60;99.90;;;;;;4900991;29;19927;-90
2023/07/15 07:17:56;;;;;;;;;;;23.70;99.90;;;;;;4890812;29;19938;-88
2023/07/15 07:20:21;;;;;;;;;;;23.70;99.90;;;;;;4885343;29;19931;-90
2023/07/15 07:22:49;;;;;;;;;;;23.60;99.90;;;;;;4901383;29;19931;-90
2023/07/15 07:25:15;;;;;;;;;;;23.80;99.90;;;;;;4885451;29;19934;-91
2023/07/15 07:27:41;;;;;;;;;;;23.80;99.90;;;;;;4885006;29;20022;-90
2023/07/15 07:30:10;;;;;;;;;;;23.90;99.90;;;;;;4885631;29;19927;-90
2023/07/15 07:32:36;;;;;;;;;;;23.90;99.90;;;;;;4895581;29;19942;-89
2023/07/15 07:35:01;;;;;;;;;;;24.00;99.90;;;;;;4908126;29;19931;-91
2023/07/15 07:37:27;;;;;;;;;;;24.00;99.90;;;;;;4884834;29;20347;-90
2023/07/15 07:39:53;;;;;;;;;;;24.00;99.90;;;;;;4900483;29;19927;-89
2023/07/15 07:42:28;;;;;;;;;;;24.00;99.90;;;;;;4915254;29;19923;-92
2023/07/15 07:44:54;;;;;;;;;;;24.00;99.90;;;;;;4900118;29;19935;-90
2023/07/15 07:47:27;;;;;;;;;;;24.20;99.90;;;;;;4884463;29;19927;-89
2023/07/15 07:49:55;;;;;;;;;;;24.30;99.90;;;;;;4887729;29;19928;-89
2023/07/15 07:52:21;;;;;;;;;;;24.40;99.90;;;;;;4900748;29;20403;-90
2023/07/15 07:54:47;;;;;;;;;;;24.50;99.90;;;;;;4885368;29;19927;-90
2023/07/15 07:57:14;;;;;;;;;;;24.70;99.90;;;;;;4884445;29;19927;-90
2023/07/15 07:59:39;;;;;;;;;;;24.80;99.90;;;;;;4884972;29;19986;-89
2023/07/15 08:02:05;;;;;;;;;;;25.00;99.90;;;;;;4882311;29;20380;-89
2023/07/15 08:04:31;;;;;;;;;;;25.10;99.90;;;;;;4884529;29;19927;-90
2023/07/15 08:06:56;;;;;;;;;;;25.20;99.90;;;;;;4884499;29;20298;-90
2023/07/15 08:09:32;;;;;;;;;;;25.20;99.90;;;;;;4884262;29;20007;-90
2023/07/15 08:11:58;;;;;;;;;;;25.30;99.90;;;;;;4895889;29;19979;-88
2023/07/15 08:14:24;;;;;;;;;;;25.30;99.90;;;;;;4881497;29;19958;-87
2023/07/15 08:16:50;;;;;;;;;;;25.20;99.90;;;;;;4895579;29;19931;-88
2023/07/15 08:19:18;;;;;;;;;;;25.20;99.90;;;;;;4880092;29;19927;-88
2023/07/15 08:21:44;;;;;;;;;;;25.00;99.90;;;;;;4895698;29;19936;-88
2023/07/15 08:24:09;;;;;;;;;;;24.90;99.90;;;;;;4880262;29;20030;-88
2023/07/15 08:26:35;;;;;;;;;;;25.00;99.90;;;;;;4880418;29;19928;-88
2023/07/15 08:29:03;;;;;;;;;;;25.10;99.90;;;;;;4881050;29;19932;-90
2023/07/15 08:31:33;;;;;;;;;;;25.40;99.90;;;;;;4880566;29;19932;-89
2023/07/15 08:33:59;;;;;;;;;;;25.60;99.90;;;;;;4896389;29;19927;-90
2023/07/15 08:36:40;;;;;;;;;;;;;;;;;;;;;
2023/07/15 08:45:58;;;;;;;;;;;25.60;99.90;;;;;;4908916;29;20395;-96
2023/07/15 08:49:03;;;;;;;;;;;25.80;99.90;;;;;;4828359;29;19974;-94
2023/07/15 08:51:44;;;;;;;;;;;25.70;99.90;;;;;;4919785;29;20022;-95
2023/07/15 08:54:10;;;;;;;;;;;25.60;99.90;;;;;;4916302;29;19927;-95
2023/07/15 08:56:37;;;;;;;;;;;25.80;99.90;;;;;;4902745;29;19927;-94
2023/07/15 08:59:16;;;;;;;;;;;;;;;;;;;;;
2023/07/15 09:02:29;;;;;;;;;;;26.10;99.90;;;;;;4906959;29;19934;-96
2023/07/15 09:05:21;;;;;;;;;;;;;;;;;;;;;
2023/07/15 09:12:00;;;;;;;;;;;25.90;99.90;;;;;;4908474;29;19926;-93
2023/07/15 09:14:47;;;;;;;;;;;25.80;99.90;;;;;;4908215;29;19926;-94
2023/07/15 09:18:29;;;;;;;;;;;25.80;99.90;;;;;;4898726;29;19935;-93
2023/07/15 09:20:59;;;;;;;;;;;;;;;;;;;;;
2023/07/15 09:24:01;;;;;;;;;;;25.70;99.90;;;;;;4908257;29;20372;-94
2023/07/15 09:26:28;;;;;;;;;;;25.60;99.90;;;;;;4911637;29;20371;-92
2023/07/15 09:32:13;;;;;;;;;;;25.30;99.90;;;;;;4908378;29;19927;-94
2023/07/15 09:35:14;;;;;;;;;;;25.30;99.90;;;;;;4893861;29;20006;-95
2023/07/15 09:41:08;;;;;;;;;;;25.20;99.90;;;;;;4903877;29;19934;-92
2023/07/15 09:43:50;;;;;;;;;;;25.30;99.90;;;;;;4914042;29;19928;-95
2023/07/15 09:46:31;;;;;;;;;;;25.20;99.90;;;;;;4912328;29;20067;-93
2023/07/15 09:48:57;;;;;;;;;;;25.10;99.90;;;;;;4898361;29;19950;-95
2023/07/15 09:51:26;;;;;;;;;;;24.90;99.90;;;;;;4899461;29;20022;-93
2023/07/15 09:53:53;;;;;;;;;;;25.10;99.90;;;;;;4898413;29;20402;-93
2023/07/15 09:56:22;;;;;;;;;;;25.20;99.90;;;;;;4916895;29;19931;-94
2023/07/15 09:58:53;;;;;;;;;;;25.40;99.90;;;;;;4898558;29;19927;-92
2023/07/15 10:01:53;;;;;;;;;;;25.70;99.90;;;;;;4904033;29;19950;-93
2023/07/15 10:04:41;;;;;;;;;;;25.70;99.90;;;;;;4910904;29;19935;-92
2023/07/15 10:07:51;;;;;;;;;;;25.70;99.90;;;;;;4914586;29;19966;-94
2023/07/15 10:10:28;;;;;;;;;;;25.90;99.90;;;;;;4859457;29;20383;-94
2023/07/15 10:13:07;;;;;;;;;;;26.10;99.90;;;;;;4900131;29;20046;-94
2023/07/15 10:15:41;;;;;;;;;;;26.10;99.90;;;;;;4899416;29;19927;-95
2023/07/15 10:18:11;;;;;;;;;;;26.20;99.90;;;;;;4916383;29;20300;-95
2023/07/15 10:21:35;;;;;;;;;;;26.10;99.90;;;;;;4869804;29;19950;-96
2023/07/15 10:54:55;;;;;;;;;;;27.20;99.90;;;;;;4841064;29;19940;-96
2023/07/15 10:58:08;;;;;;;;;;;;;;;;;;;;;
2023/07/15 11:01:14;;;;;;;;;;;26.90;99.90;;;;;;4819790;29;20012;-94
2023/07/15 11:04:04;;;;;;;;;;;;;;;;;;;;;
2023/07/15 11:06:45;;;;;;;;;;;26.90;99.90;;;;;;4871500;29;20436;-94
2023/07/15 11:09:18;;;;;;;;;;;27.20;99.90;;;;;;4845152;29;19975;-93
2023/07/15 11:12:01;;;;;;;;;;;;;;;;;;;;;
2023/07/15 11:15:01;;;;;;;;;;;27.30;99.90;;;;;;4858833;29;19932;-94
2023/07/15 11:20:34;;;;;;;;;;;27.20;99.90;;;;;;4865611;29;19928;-91
2023/07/15 11:35:29;;;;;;;;;;;27.30;99.90;;;;;;4818700;29;20096;-87
2023/07/15 11:38:06;;;;;;;;;;;27.30;99.90;;;;;;4800340;29;19929;-94
2023/07/15 11:40:35;;;;;;;;;;;27.30;99.90;;;;;;4877354;23;19939;-96
2023/07/15 11:43:36;;;;;;;;;;;27.40;99.90;;;;;;4860162;29;19939;-96
2023/07/15 11:46:01;;;;;;;;;;;27.50;99.90;;;;;;4858835;29;19940;-96
2023/07/15 11:48:51;;;;;;;;;;;27.40;99.90;;;;;;4866375;29;20456;-96
2023/07/15 11:54:46;;;;;;;;;;;27.20;99.90;;;;;;4852059;29;20019;-96
2023/07/15 11:57:28;;;;;;;;;;;27.00;99.90;;;;;;4865882;29;20388;-96
2023/07/15 12:00:03;;;;;;;;;;;26.90;99.90;;;;;;4873861;29;19982;-96
2023/07/15 12:02:32;;;;;;;;;;;26.80;99.90;;;;;;4869092;29;19928;-96
2023/07/15 12:04:57;;;;;;;;;;;26.90;99.90;;;;;;4887652;29;19932;-96
2023/07/15 12:07:26;;;;;;;;;;;27.10;99.90;;;;;;4883632;29;20296;-96
2023/07/15 12:10:15;;;;;;;;;;;27.20;99.90;;;;;;4887193;29;19932;-96
2023/07/15 12:12:46;;;;;;;;;;;27.30;99.90;;;;;;4865231;29;19936;-95
2023/07/15 12:15:14;;;;;;;;;;;27.30;99.90;;;;;;4883505;29;19932;-96
2023/07/15 12:17:46;;;;;;;;;;;27.20;99.90;;;;;;4869500;29;19932;-96
2023/07/15 12:20:12;;;;;;;;;;;27.10;99.90;;;;;;4860588;29;19936;-96
2023/07/15 12:22:42;;;;;;;;;;;27.00;99.90;;;;;;4876688;29;20224;-96
2023/07/15 12:25:08;;;;;;;;;;;27.00;99.90;;;;;;4876806;29;20416;-96
2023/07/15 12:27:34;;;;;;;;;;;27.10;99.90;;;;;;4834127;29;19928;-96
2023/07/15 12:29:59;;;;;;;;;;;27.30;99.90;;;;;;4882508;29;19935;-96
2023/07/15 12:32:25;;;;;;;;;;;27.30;99.90;;;;;;4863507;29;19932;-96
2023/07/15 12:34:51;;;;;;;;;;;27.20;99.90;;;;;;4836573;29;20285;-96
2023/07/15 12:37:17;;;;;;;;;;;27.30;99.90;;;;;;4868579;29;19936;-96
2023/07/15 12:39:42;;;;;;;;;;;27.20;99.90;;;;;;4902463;23;19931;-93
2023/07/15 12:42:19;;;;;;;;;;;27.20;99.90;;;;;;4867235;29;20023;-94
2023/07/15 12:44:44;;;;;;;;;;;27.20;99.90;;;;;;4864380;29;20001;-94
2023/07/15 12:47:10;;;;;;;;;;;27.30;99.90;;;;;;4847311;29;19927;-93
2023/07/15 12:49:35;;;;;;;;;;;27.40;99.90;;;;;;4850502;29;19932;-94
2023/07/15 12:52:01;;;;;;;;;;;27.60;99.90;;;;;;4846158;29;19928;-93
2023/07/15 12:54:27;;;;;;;;;;;27.70;99.90;;;;;;4862602;29;20023;-89
2023/07/15 12:56:52;;;;;;;;;;;27.90;99.90;;;;;;4836157;29;20003;-93
2023/07/15 12:59:18;;;;;;;;;;;28.40;99.90;;;;;;4878045;29;19927;-91
2023/07/15 13:01:44;;;;;;;;;;;28.30;99.90;;;;;;4869333;29;20366;-94
2023/07/15 13:04:09;;;;;;;;;;;28.30;99.90;;;;;;4849813;29;19935;-91
2023/07/15 13:06:38;;;;;;;;;;;28.40;99.90;;;;;;4861271;29;20464;-90
2023/07/15 13:09:03;;;;;;;;;;;28.40;99.90;;;;;;4834610;29;19979;-87
2023/07/15 13:11:29;;;;;;;;;;;28.30;99.90;;;;;;4845772;29;19928;-89
2023/07/15 13:13:55;;;;;;;;;;;28.10;99.90;;;;;;4865252;29;19931;-91
2023/07/15 13:16:20;;;;;;;;;;;28.10;99.90;;;;;;4875543;29;20014;-91
2023/07/15 13:18:46;;;;;;;;;;;28.10;99.90;;;;;;4860551;29;20327;-94
2023/07/15 13:21:14;;;;;;;;;;;28.10;99.90;;;;;;4839755;29;19927;-92
2023/07/15 13:23:40;;;;;;;;;;;28.00;99.90;;;;;;4877018;29;19928;-91
2023/07/15 13:26:05;;;;;;;;;;;28.20;99.90;;;;;;4846244;29;19928;-93
2023/07/15 13:28:31;;;;;;;;;;;28.20;99.90;;;;;;4838648;29;20031;-90
2023/07/15 13:30:57;;;;;;;;;;;28.20;99.90;;;;;;4868544;29;20257;-92
2023/07/15 13:33:22;;;;;;;;;;;28.10;99.90;;;;;;4866083;29;19927;-92
2023/07/15 13:35:48;;;;;;;;;;;28.10;99.90;;;;;;4878506;29;19983;-91
2023/07/15 13:38:13;;;;;;;;;;;28.00;99.90;;;;;;4863510;29;19935;-91
2023/07/15 13:40:39;;;;;;;;;;;28.00;99.90;;;;;;4854818;29;19979;-90
2023/07/15 13:43:05;;;;;;;;;;;28.00;99.90;;;;;;4888310;29;20288;-91
2023/07/15 13:45:30;;;;;;;;;;;28.10;99.90;;;;;;4860828;29;20296;-92
2023/07/15 13:47:59;;;;;;;;;;;28.10;99.90;;;;;;4887639;29;19931;-91
2023/07/15 13:50:24;;;;;;;;;;;28.20;99.90;;;;;;4853008;29;19982;-91
2023/07/15 13:52:50;;;;;;;;;;;28.10;99.90;;;;;;4876449;29;19966;-91
2023/07/15 13:55:16;;;;;;;;;;;28.10;99.90;;;;;;4876188;29;20271;-91
2023/07/15 13:57:42;;;;;;;;;;;28.10;99.90;;;;;;4881621;29;19928;-90
2023/07/15 14:00:08;;;;;;;;;;;28.00;99.90;;;;;;4851656;29;20257;-90
2023/07/15 14:02:35;;;;;;;;;;;27.80;99.90;;;;;;4885435;29;20308;-90
2023/07/15 14:05:01;;;;;;;;;;;27.60;99.90;;;;;;4854382;29;20084;-88
2023/07/15 14:07:27;;;;;;;;;;;27.50;99.90;;;;;;4879007;29;20423;-89
2023/07/15 14:09:52;;;;;;;;;;;27.40;99.90;;;;;;4862135;29;19935;-91
2023/07/15 14:12:18;;;;;;;;;;;27.50;99.90;;;;;;4883171;29;19928;-90
2023/07/15 14:14:43;;;;;;;;;;;27.40;99.90;;;;;;4844809;29;19987;-90
2023/07/15 14:17:10;;;;;;;;;;;27.40;99.90;;;;;;4851594;29;20304;-92
2023/07/15 14:19:35;;;;;;;;;;;27.30;99.90;;;;;;4860935;29;19935;-92
2023/07/15 14:22:02;;;;;;;;;;;27.20;99.90;;;;;;4844504;29;20023;-92
2023/07/15 14:24:28;;;;;;;;;;;27.30;99.90;;;;;;4850139;29;19934;-91
2023/07/15 14:26:57;;;;;;;;;;;27.40;99.90;;;;;;4873390;29;19928;-91
2023/07/15 14:29:22;;;;;;;;;;;27.30;99.90;;;;;;4860787;29;19928;-91
2023/07/15 14:31:48;;;;;;;;;;;27.50;99.90;;;;;;4850259;29;20277;-92
2023/07/15 14:34:14;;;;;;;;;;;27.50;99.90;;;;;;4851275;29;19928;-92
2023/07/15 14:36:46;;;;;;;;;;;27.70;99.90;;;;;;4865097;29;20415;-93
2023/07/15 14:39:11;;;;;;;;;;;27.60;99.90;;;;;;4854153;29;19928;-92
2023/07/15 14:41:38;;;;;;;;;;;27.70;99.90;;;;;;4842358;29;19934;-90
2023/07/15 14:44:04;;;;;;;;;;;27.70;99.90;;;;;;4876431;29;19939;-91
2023/07/15 14:46:30;;;;;;;;;;;27.70;99.90;;;;;;4888669;29;19935;-93
2023/07/15 14:48:55;;;;;;;;;;;27.70;99.90;;;;;;4876841;29;19928;-91
2023/07/15 14:51:21;;;;;;;;;;;27.90;99.90;;;;;;4859996;29;19979;-91
2023/07/15 14:53:46;;;;;;;;;;;28.00;99.90;;;;;;4849610;29;20381;-91
2023/07/15 14:56:13;;;;;;;;;;;28.00;99.90;;;;;;4863499;29;20053;-91
2023/07/15 14:58:39;;;;;;;;;;;28.10;99.90;;;;;;4879225;29;19955;-91
2023/07/15 15:01:05;;;;;;;;;;;28.00;99.90;;;;;;4868115;29;20027;-93
2023/07/15 15:03:31;;;;;;;;;;;28.10;99.90;;;;;;4877100;29;20000;-93
2023/07/15 15:05:56;;;;;;;;;;;28.10;99.90;;;;;;4871834;29;19928;-92
2023/07/15 15:08:22;;;;;;;;;;;28.20;99.90;;;;;;4889211;29;19937;-89
2023/07/15 15:10:47;;;;;;;;;;;28.20;99.90;;;;;;4862653;29;19968;-91
2023/07/15 15:13:13;;;;;;;;;;;28.20;99.90;;;;;;4883319;29;19942;-89
2023/07/15 15:15:39;;;;;;;;;;;28.20;99.90;;;;;;4858841;29;19958;-87
2023/07/15 15:18:04;;;;;;;;;;;28.20;99.90;;;;;;4878741;29;19989;-88
2023/07/15 15:20:30;;;;;;;;;;;28.10;99.90;;;;;;4846791;29;19931;-89
2023/07/15 15:22:56;;;;;;;;;;;27.90;99.90;;;;;;4872264;29;20088;-88
2023/07/15 15:25:21;;;;;;;;;;;27.90;99.90;;;;;;4871480;29;19940;-86
2023/07/15 15:27:47;;;;;;;;;;;27.90;99.90;;;;;;4877355;29;20306;-90
2023/07/15 15:30:12;;;;;;;;;;;27.90;99.90;;;;;;4863797;29;19966;-88
2023/07/15 15:32:38;;;;;;;;;;;27.90;99.90;;;;;;4889428;29;19942;-87
2023/07/15 15:35:04;;;;;;;;;;;27.90;99.60;;;;;;4853088;29;19932;-89
2023/07/15 15:37:30;;;;;;;;;;;27.90;99.90;;;;;;4847423;29;19932;-87
2023/07/15 15:39:55;;;;;;;;;;;28.00;99.90;;;;;;4887025;29;19928;-88
2023/07/15 15:42:21;;;;;;;;;;;28.00;99.60;;;;;;4885749;29;20019;-87
2023/07/15 15:44:46;;;;;;;;;;;28.10;99.60;;;;;;4864278;29;19935;-89
2023/07/15 15:47:12;;;;;;;;;;;28.10;99.60;;;;;;4882725;29;19939;-89
2023/07/15 15:49:37;;;;;;;;;;;28.10;99.60;;;;;;4847267;29;20364;-89
2023/07/15 15:52:03;;;;;;;;;;;27.90;99.30;;;;;;4846837;29;20069;-88
2023/07/15 15:54:29;;;;;;;;;;;27.70;99.40;;;;;;4878595;29;20439;-87
2023/07/15 15:56:54;;;;;;;;;;;27.60;99.40;;;;;;4869358;29;20463;-88
2023/07/15 15:59:20;;;;;;;;;;;27.40;99.40;;;;;;4847018;29;20018;-90
2023/07/15 16:01:46;;;;;;;;;;;27.30;99.60;;;;;;4894485;29;19927;-90
2023/07/15 16:04:11;;;;;;;;;;;27.20;99.50;;;;;;4847620;29;20300;-91
2023/07/15 16:06:37;;;;;;;;;;;27.30;99.60;;;;;;4852845;29;20416;-91
2023/07/15 16:09:03;;;;;;;;;;;27.30;99.80;;;;;;4877086;29;20071;-90
2023/07/15 16:11:28;;;;;;;;;;;27.30;99.90;;;;;;4847780;29;19928;-90
2023/07/15 16:13:54;;;;;;;;;;;27.40;99.90;;;;;;4862403;29;20443;-90
2023/07/15 16:16:19;;;;;;;;;;;27.50;99.90;;;;;;4877783;29;19927;-90
2023/07/15 16:18:45;;;;;;;;;;;27.70;99.90;;;;;;4877629;29;19928;-90
2023/07/15 16:21:10;;;;;;;;;;;27.80;99.90;;;;;;4868140;29;20666;-89